Time;durP1;ratioP1;P1;durP2;ratioP2;P2;SDS_P1;SDS_P2;PMS_P1;PMS_P2;Temp;Humidity;BMP_temperature;BMP_pressure;BME280_temperature;BME280_humidity;BME280_pressure;Samples;Min_cycle;Max_cycle;Signal;HPM_P1;HPM_P2
2022/06/24 00:00:42;;;;;;;0.10;0.10;;;18.80;99.90;;;;;;5067125;28;20448;-88
2022/06/24 00:03:16;;;;;;;0.10;0.10;;;18.80;99.90;;;;;;5072291;28;20501;-89
2022/06/24 00:05:41;;;;;;;0.10;0.00;;;18.80;99.90;;;;;;5070328;28;20251;-88
2022/06/24 00:08:07;;;;;;;0.10;0.10;;;18.80;99.90;;;;;;5070657;28;20444;-90
2022/06/24 00:10:34;;;;;;;0.10;0.10;;;18.70;99.90;;;;;;5069651;28;20304;-89
2022/06/24 00:13:00;;;;;;;0.10;0.10;;;18.60;99.90;;;;;;5065576;28;20178;-90
2022/06/24 00:15:32;;;;;;;0.10;0.10;;;18.70;99.90;;;;;;5069062;28;20974;-90
2022/06/24 00:18:10;;;;;;;0.10;0.10;;;18.70;99.90;;;;;;5070645;28;20497;-89
2022/06/24 00:20:48;;;;;;;0.10;0.00;;;18.70;99.90;;;;;;5067440;28;20444;-89
2022/06/24 00:23:21;;;;;;;0.10;0.10;;;18.40;99.90;;;;;;5067746;28;20432;-90
2022/06/24 00:25:49;;;;;;;0.10;0.00;;;18.60;99.90;;;;;;5068301;28;20527;-90
2022/06/24 00:28:15;;;;;;;0.10;0.10;;;18.60;99.90;;;;;;5069296;28;20493;-90
2022/06/24 00:30:43;;;;;;;0.10;0.10;;;18.50;99.90;;;;;;5068217;28;20498;-89
2022/06/24 00:33:20;;;;;;;0.10;0.10;;;18.20;99.90;;;;;;5069221;28;20460;-89
2022/06/24 00:35:54;;;;;;;0.10;0.10;;;18.10;99.90;;;;;;5067134;28;20427;-89
2022/06/24 00:38:36;;;;;;;0.10;0.10;;;18.00;99.90;;;;;;5066433;28;20459;-88
2022/06/24 00:41:09;;;;;;;0.10;0.10;;;18.20;99.90;;;;;;5071256;28;20955;-89
2022/06/24 00:43:42;;;;;;;0.10;0.10;;;18.30;99.90;;;;;;5069426;28;20443;-89
2022/06/24 00:46:17;;;;;;;0.10;0.10;;;18.30;99.90;;;;;;5071990;28;20444;-89
2022/06/24 00:48:56;;;;;;;0.10;0.10;;;18.40;99.90;;;;;;5068598;28;20471;-90
2022/06/24 00:51:23;;;;;;;0.10;0.10;;;18.40;99.90;;;;;;5080514;28;20962;-88
2022/06/24 00:53:50;;;;;;;0.10;0.10;;;18.50;99.90;;;;;;5057530;28;20444;-89
2022/06/24 00:56:18;;;;;;;0.10;0.10;;;18.70;99.90;;;;;;5069017;28;20569;-88
2022/06/24 00:58:55;;;;;;;0.10;0.10;;;18.60;99.90;;;;;;5067569;28;20585;-88
2022/06/24 01:01:42;;;;;;;0.10;0.10;;;18.60;99.90;;;;;;5067420;28;20456;-89
2022/06/24 01:04:11;;;;;;;0.10;0.10;;;18.60;99.90;;;;;;5068241;28;20443;-90
2022/06/24 01:06:39;;;;;;;0.10;0.10;;;18.50;99.90;;;;;;5068179;28;20451;-88
2022/06/24 01:09:05;;;;;;;0.10;0.10;;;18.50;99.90;;;;;;5067097;28;20935;-88
2022/06/24 01:11:36;;;;;;;0.10;0.10;;;18.50;99.90;;;;;;5070532;28;21092;-89
2022/06/24 01:14:02;;;;;;;0.10;0.10;;;18.60;99.90;;;;;;5069862;28;20432;-88
2022/06/24 01:16:28;;;;;;;0.10;0.10;;;18.50;99.90;;;;;;5081774;28;20444;-89
2022/06/24 01:19:00;;;;;;;0.10;0.10;;;18.50;99.90;;;;;;5068160;28;20480;-89
2022/06/24 01:21:50;;;;;;;0.10;0.10;;;18.50;99.90;;;;;;5062563;28;20673;-89
2022/06/24 01:24:18;;;;;;;0.10;0.10;;;18.40;99.90;;;;;;5060886;28;20470;-89
2022/06/24 01:26:49;;;;;;;0.10;0.10;;;18.40;99.90;;;;;;5069722;28;20958;-89
2022/06/24 01:29:15;;;;;;;0.10;0.10;;;18.40;99.90;;;;;;5069554;28;20943;-89
2022/06/24 01:31:42;;;;;;;0.10;0.10;;;18.40;99.90;;;;;;5067550;28;21006;-88
2022/06/24 01:34:09;;;;;;;0.10;0.10;;;18.40;99.90;;;;;;5062447;28;20435;-89
2022/06/24 01:36:35;;;;;;;0.10;0.10;;;18.40;99.90;;;;;;5067190;28;20448;-88
2022/06/24 01:39:01;;;;;;;0.10;0.10;;;18.40;99.90;;;;;;5067445;28;20944;-89
2022/06/24 01:41:26;;;;;;;0.10;0.10;;;18.40;99.90;;;;;;5055949;28;20186;-89
2022/06/24 01:43:52;;;;;;;0.10;0.10;;;18.30;99.90;;;;;;5068580;28;20436;-89
2022/06/24 01:46:17;;;;;;;0.10;0.10;;;18.40;99.90;;;;;;5066358;28;20632;-92
2022/06/24 01:48:43;;;;;;;0.10;0.10;;;18.30;99.90;;;;;;5066904;28;20190;-89
2022/06/24 01:51:12;;;;;;;0.10;0.10;;;18.30;99.90;;;;;;5065688;28;20678;-88
2022/06/24 01:53:38;;;;;;;0.10;0.10;;;18.30;99.90;;;;;;5069064;28;20190;-88
2022/06/24 01:56:03;;;;;;;0.10;0.10;;;18.30;99.90;;;;;;5062331;28;20499;-88
2022/06/24 01:58:29;;;;;;;0.10;0.10;;;18.40;99.90;;;;;;5059714;28;20191;-88
2022/06/24 02:00:55;;;;;;;0.10;0.10;;;18.30;99.90;;;;;;5063254;28;20601;-88
2022/06/24 02:03:20;;;;;;;0.10;0.10;;;18.30;99.90;;;;;;5067745;28;20186;-89
2022/06/24 02:05:46;;;;;;;0.10;0.10;;;18.20;99.90;;;;;;5068133;28;20201;-88
2022/06/24 02:08:12;;;;;;;0.10;0.10;;;18.30;99.90;;;;;;5069139;28;20198;-92
2022/06/24 02:13:28;;;;;;;0.10;0.10;;;18.20;99.90;;;;;;5061926;28;20451;-90
2022/06/24 02:15:56;;;;;;;0.10;0.10;;;18.20;99.90;;;;;;5068506;28;20826;-89
2022/06/24 02:18:23;;;;;;;0.10;0.10;;;18.10;99.90;;;;;;5066168;28;20459;-88
2022/06/24 02:20:49;;;;;;;0.10;0.10;;;18.10;99.90;;;;;;5069597;28;20821;-90
2022/06/24 02:23:15;;;;;;;0.10;0.10;;;18.00;99.90;;;;;;5059744;28;20506;-89
2022/06/24 02:25:41;;;;;;;0.10;0.10;;;18.00;99.90;;;;;;5068266;28;20440;-90
2022/06/24 02:28:06;;;;;;;0.10;0.10;;;18.00;99.90;;;;;;5082695;28;20178;-90
2022/06/24 02:30:32;;;;;;;0.10;0.10;;;17.90;99.90;;;;;;5067551;28;20297;-90
2022/06/24 02:32:58;;;;;;;0.10;0.10;;;17.90;99.90;;;;;;5066792;28;20685;-89
2022/06/24 02:35:23;;;;;;;0.10;0.10;;;17.90;99.90;;;;;;5067046;28;20296;-89
2022/06/24 02:37:49;;;;;;;0.10;0.10;;;17.90;99.90;;;;;;5065230;28;20268;-89
2022/06/24 02:43:00;;;;;;;0.10;0.10;;;17.70;99.90;;;;;;5065793;28;20343;-89
2022/06/24 02:45:25;;;;;;;0.10;0.10;;;17.60;99.90;;;;;;5064397;28;20535;-90
2022/06/24 02:47:51;;;;;;;0.10;0.10;;;17.70;99.90;;;;;;5069127;28;20578;-90
2022/06/24 02:50:16;;;;;;;0.10;0.10;;;17.70;99.90;;;;;;5065649;28;20650;-90
2022/06/24 02:52:42;;;;;;;0.10;0.10;;;17.50;99.90;;;;;;5067414;28;20701;-89
2022/06/24 02:55:08;;;;;;;0.10;0.10;;;17.50;99.90;;;;;;5065686;28;20189;-89
2022/06/24 02:57:33;;;;;;;0.10;0.10;;;17.50;99.90;;;;;;5063721;28;20201;-89
2022/06/24 02:59:59;;;;;;;0.10;0.10;;;17.50;99.90;;;;;;5069914;28;20772;-89
2022/06/24 03:02:25;;;;;;;0.10;0.10;;;17.50;99.90;;;;;;5064310;28;20295;-88
2022/06/24 03:04:51;;;;;;;0.10;0.10;;;17.40;99.90;;;;;;5068453;28;20181;-89
2022/06/24 03:07:16;;;;;;;0.10;0.10;;;17.50;99.90;;;;;;5061768;28;20463;-89
2022/06/24 03:09:42;;;;;;;0.10;0.10;;;17.50;99.90;;;;;;5064858;28;20193;-89
2022/06/24 03:12:07;;;;;;;0.10;0.10;;;17.50;99.90;;;;;;5064559;28;20214;-89
2022/06/24 03:14:33;;;;;;;0.10;0.10;;;17.40;99.90;;;;;;5065456;28;20186;-89
2022/06/24 03:16:59;;;;;;;0.10;0.10;;;17.40;99.90;;;;;;5062046;28;20482;-90
2022/06/24 03:19:24;;;;;;;0.10;0.10;;;17.40;99.90;;;;;;5066543;28;20182;-90
2022/06/24 03:21:50;;;;;;;0.10;0.10;;;17.50;99.90;;;;;;5065685;28;20201;-90
2022/06/24 03:24:16;;;;;;;0.10;0.10;;;17.40;99.90;;;;;;5066860;28;20661;-88
2022/06/24 03:26:41;;;;;;;0.10;0.10;;;17.40;99.90;;;;;;5065562;28;20595;-89
2022/06/24 03:29:07;;;;;;;0.10;0.10;;;17.40;99.90;;;;;;5067463;28;20474;-90
2022/06/24 03:31:32;;;;;;;0.10;0.10;;;17.40;99.90;;;;;;5068220;28;20253;-88
2022/06/24 03:33:58;;;;;;;0.10;0.10;;;17.30;99.90;;;;;;5067226;28;20201;-88
2022/06/24 03:36:24;;;;;;;0.10;0.10;;;17.40;99.90;;;;;;5067447;28;20220;-90
2022/06/24 03:38:50;;;;;;;0.10;0.10;;;17.50;99.90;;;;;;5070520;28;20665;-90
2022/06/24 03:41:16;;;;;;;0.10;0.10;;;17.40;99.90;;;;;;5071607;28;20448;-90
2022/06/24 03:43:41;;;;;;;0.10;0.10;;;17.40;99.90;;;;;;5067734;28;20214;-90
2022/06/24 03:46:07;;;;;;;0.10;0.10;;;17.30;99.90;;;;;;5064379;28;20274;-90
2022/06/24 03:48:32;;;;;;;0.10;0.10;;;17.40;99.90;;;;;;5063578;28;20276;-90
2022/06/24 03:50:58;;;;;;;0.10;0.10;;;17.40;99.90;;;;;;5070206;28;20946;-90
2022/06/24 03:53:23;;;;;;;0.10;0.10;;;17.40;99.90;;;;;;5069621;28;20194;-91
2022/06/24 03:55:50;;;;;;;0.10;0.10;;;17.50;99.90;;;;;;5070308;28;20237;-90
2022/06/24 03:58:17;;;;;;;0.10;0.10;;;17.50;99.90;;;;;;5062115;28;20197;-89
2022/06/24 04:00:43;;;;;;;0.10;0.10;;;17.50;99.90;;;;;;5060718;28;20433;-90
2022/06/24 04:03:08;;;;;;;0.10;0.10;;;17.60;99.90;;;;;;5083197;28;20531;-90
2022/06/24 04:05:34;;;;;;;0.10;0.10;;;17.60;99.90;;;;;;5061949;28;20202;-91
2022/06/24 04:08:00;;;;;;;0.10;0.10;;;17.60;99.90;;;;;;5075915;28;20277;-90
2022/06/24 04:10:28;;;;;;;0.10;0.10;;;17.70;99.90;;;;;;5071351;28;20456;-90
2022/06/24 04:12:54;;;;;;;0.10;0.00;;;17.70;99.90;;;;;;5068846;28;20616;-90
2022/06/24 04:15:19;;;;;;;0.10;0.10;;;17.80;99.90;;;;;;5057492;28;20441;-89
2022/06/24 04:17:47;;;;;;;0.10;0.10;;;17.90;99.90;;;;;;5067051;28;20190;-90
2022/06/24 04:20:17;;;;;;;0.10;0.10;;;17.90;99.90;;;;;;5067869;28;20204;-89
2022/06/24 04:22:44;;;;;;;0.10;0.10;;;17.90;99.90;;;;;;5068864;28;20534;-90
2022/06/24 04:25:11;;;;;;;0.10;0.10;;;18.00;99.90;;;;;;5069182;28;20461;-90
2022/06/24 04:27:37;;;;;;;0.10;0.10;;;18.00;99.90;;;;;;5068795;28;20464;-89
2022/06/24 04:30:05;;;;;;;0.10;0.10;;;18.00;99.90;;;;;;5069961;28;20459;-89
2022/06/24 04:32:31;;;;;;;0.10;0.10;;;18.00;99.90;;;;;;5070023;28;20549;-89
2022/06/24 04:34:57;;;;;;;0.10;0.10;;;18.20;99.90;;;;;;5084134;28;20467;-90
2022/06/24 04:37:22;;;;;;;0.10;0.10;;;18.20;99.90;;;;;;5071268;28;20639;-88
2022/06/24 04:39:48;;;;;;;0.10;0.10;;;18.20;99.90;;;;;;5069438;28;20182;-88
2022/06/24 04:42:14;;;;;;;0.10;0.10;;;18.40;99.90;;;;;;5053870;28;20202;-89
2022/06/24 04:44:39;;;;;;;0.10;0.10;;;18.50;99.90;;;;;;5070059;28;20189;-89
2022/06/24 04:47:05;;;;;;;0.10;0.10;;;18.60;99.90;;;;;;5070704;28;20190;-89
2022/06/24 04:49:32;;;;;;;0.10;0.10;;;18.60;99.90;;;;;;5067315;28;20294;-89
2022/06/24 04:51:58;;;;;;;0.10;0.10;;;18.70;99.90;;;;;;5068812;28;20572;-89
2022/06/24 04:54:23;;;;;;;0.10;0.10;;;18.70;99.90;;;;;;5066931;28;20471;-87
2022/06/24 04:56:49;;;;;;;0.10;0.10;;;18.80;99.90;;;;;;5064842;28;20236;-91
2022/06/24 04:59:15;;;;;;;0.10;0.10;;;18.90;99.90;;;;;;5068529;28;20684;-92
2022/06/24 05:01:40;;;;;;;0.10;0.10;;;19.00;99.90;;;;;;5065481;28;20627;-89
2022/06/24 05:04:06;;;;;;;0.10;0.00;;;19.10;99.90;;;;;;5064037;28;20212;-91
2022/06/24 05:06:31;;;;;;;0.10;0.00;;;19.20;99.90;;;;;;5061467;28;20674;-90
2022/06/24 05:08:57;;;;;;;0.10;0.10;;;19.30;99.90;;;;;;5065089;28;20182;-90
2022/06/24 05:11:23;;;;;;;0.10;0.10;;;19.40;99.90;;;;;;5069064;28;20221;-89
2022/06/24 05:13:49;;;;;;;0.10;0.00;;;19.50;99.90;;;;;;5066716;28;20178;-94
2022/06/24 05:16:15;;;;;;;0.10;0.10;;;19.60;99.90;;;;;;5059666;28;20453;-91
2022/06/24 05:18:40;;;;;;;0.10;0.10;;;19.70;99.90;;;;;;5067279;28;20232;-90
2022/06/24 05:21:06;;;;;;;0.10;0.10;;;19.90;99.90;;;;;;5083160;28;20956;-88
2022/06/24 05:23:31;;;;;;;0.10;0.07;;;20.00;99.90;;;;;;5067472;28;20182;-89
2022/06/24 05:25:57;;;;;;;0.10;0.10;;;20.00;99.90;;;;;;5060837;28;20190;-90
2022/06/24 05:28:22;;;;;;;0.10;0.10;;;20.10;99.90;;;;;;5064620;28;20220;-91
2022/06/24 05:30:55;;;;;;;0.10;0.10;;;20.20;99.90;;;;;;5065664;28;20201;-90
2022/06/24 05:33:21;;;;;;;0.10;0.00;;;20.30;99.90;;;;;;5069865;28;20588;-93
2022/06/24 05:35:46;;;;;;;0.10;0.00;;;20.30;99.90;;;;;;5065888;28;20432;-93
2022/06/24 05:38:12;;;;;;;0.10;0.00;;;20.40;99.90;;;;;;5068552;28;20182;-90
2022/06/24 05:40:37;;;;;;;0.10;0.10;;;20.50;99.90;;;;;;5067950;28;20185;-90
2022/06/24 05:43:03;;;;;;;0.10;0.00;;;20.60;99.90;;;;;;5065747;28;20579;-90
2022/06/24 05:45:28;;;;;;;0.10;0.00;;;20.80;99.90;;;;;;5066436;28;20186;-90
2022/06/24 05:47:54;;;;;;;0.10;0.00;;;20.90;99.90;;;;;;5066152;28;20252;-91
2022/06/24 05:50:19;;;;;;;0.10;0.00;;;21.00;99.90;;;;;;5060814;28;20192;-91
2022/06/24 05:55:30;;;;;;;0.10;0.10;;;21.10;99.90;;;;;;5064543;28;20260;-89
2022/06/24 05:57:55;;;;;;;0.10;0.10;;;21.20;99.90;;;;;;5061896;28;21361;-89
2022/06/24 06:00:21;;;;;;;0.10;0.00;;;21.30;99.90;;;;;;5065379;28;20443;-89
2022/06/24 06:02:46;;;;;;;0.10;0.00;;;21.30;99.90;;;;;;5066239;28;20185;-92
2022/06/24 06:05:12;;;;;;;0.10;0.00;;;21.30;99.90;;;;;;5069795;28;20226;-94
2022/06/24 06:07:37;;;;;;;0.10;0.00;;;21.50;99.90;;;;;;5065342;28;20224;-93
2022/06/24 06:10:03;;;;;;;0.10;0.10;;;21.50;99.90;;;;;;5070428;28;20749;-92
2022/06/24 06:12:29;;;;;;;0.10;0.00;;;21.60;99.90;;;;;;5066895;28;20237;-93
2022/06/24 06:14:54;;;;;;;0.10;0.00;;;21.70;99.90;;;;;;5063025;28;20186;-92
2022/06/24 06:17:20;;;;;;;0.10;0.00;;;21.80;99.90;;;;;;5065352;28;20197;-92
2022/06/24 06:19:45;;;;;;;0.10;0.10;;;21.80;99.90;;;;;;5062813;28;20182;-92
2022/06/24 06:22:11;;;;;;;0.10;0.00;;;22.00;99.90;;;;;;5064325;28;20205;-94
2022/06/24 06:24:37;;;;;;;0.10;0.00;;;22.00;99.90;;;;;;5064594;28;20181;-95
2022/06/24 06:27:02;;;;;;;0.10;0.00;;;22.10;99.90;;;;;;5061097;28;20190;-92
2022/06/24 06:29:28;;;;;;;0.10;0.00;;;22.10;99.90;;;;;;5062481;28;20193;-91
2022/06/24 06:31:55;;;;;;;0.10;0.00;;;22.20;99.90;;;;;;5067236;28;20303;-90
2022/06/24 06:34:20;;;;;;;0.10;0.00;;;22.20;99.90;;;;;;5061400;28;20208;-89
2022/06/24 06:36:46;;;;;;;0.10;0.00;;;22.40;99.90;;;;;;5064993;28;20448;-90
2022/06/24 06:39:12;;;;;;;0.10;0.00;;;22.40;99.90;;;;;;5064485;28;20178;-90
2022/06/24 06:41:38;;;;;;;0.10;0.00;;;22.60;99.90;;;;;;5060389;28;20448;-90
2022/06/24 06:44:03;;;;;;;0.10;0.00;;;22.60;99.90;;;;;;5064337;28;20933;-88
2022/06/24 06:46:29;;;;;;;0.10;0.00;;;22.70;99.90;;;;;;5064001;28;20193;-87
2022/06/24 06:48:54;;;;;;;0.10;0.00;;;22.80;99.90;;;;;;5062738;28;20193;-87
2022/06/24 06:51:20;;;;;;;0.10;0.00;;;22.90;99.90;;;;;;5065279;28;20226;-87
2022/06/24 06:53:45;;;;;;;0.10;0.00;;;23.00;99.90;;;;;;5058123;28;20574;-87
2022/06/24 06:56:11;;;;;;;0.10;0.00;;;23.10;99.90;;;;;;5062118;28;20450;-89
2022/06/24 06:58:36;;;;;;;0.10;0.00;;;23.20;99.90;;;;;;5070144;28;20186;-89
2022/06/24 07:01:02;;;;;;;0.10;0.00;;;23.20;99.90;;;;;;5067343;28;20198;-87
2022/06/24 07:03:28;;;;;;;0.10;0.00;;;23.30;99.90;;;;;;5068577;28;20185;-86
2022/06/24 07:05:54;;;;;;;0.10;0.00;;;23.30;99.90;;;;;;5071493;28;20189;-87
2022/06/24 07:08:19;;;;;;;0.10;0.00;;;23.30;99.90;;;;;;5062541;28;20198;-88
2022/06/24 07:10:45;;;;;;;0.10;0.00;;;23.30;99.90;;;;;;5070334;28;20819;-87
2022/06/24 07:13:12;;;;;;;0.10;0.00;;;23.50;99.90;;;;;;5090072;28;20642;-89
2022/06/24 07:15:37;;;;;;;0.10;0.00;;;23.50;99.90;;;;;;5068881;28;20197;-91
2022/06/24 07:18:04;;;;;;;0.10;0.00;;;23.60;99.90;;;;;;5063989;28;20448;-89
2022/06/24 07:20:29;;;;;;;0.10;0.00;;;23.80;99.90;;;;;;5075975;28;20193;-89
2022/06/24 07:22:55;;;;;;;0.10;0.00;;;23.90;99.90;;;;;;5086693;28;20894;-89
2022/06/24 07:25:23;;;;;;;0.10;0.00;;;24.10;99.90;;;;;;5067789;28;20646;-87
2022/06/24 07:27:49;;;;;;;0.10;0.00;;;24.00;99.90;;;;;;5068045;28;20194;-87
2022/06/24 07:30:15;;;;;;;0.10;0.00;;;24.10;99.90;;;;;;5064308;28;21121;-86
2022/06/24 07:32:40;;;;;;;0.10;0.00;;;24.10;99.90;;;;;;5069931;28;20981;-87
2022/06/24 07:35:06;;;;;;;0.10;0.00;;;24.10;99.90;;;;;;5071166;28;20276;-85
2022/06/24 07:37:32;;;;;;;0.10;0.00;;;24.10;99.90;;;;;;5068107;28;20197;-85
2022/06/24 07:39:57;;;;;;;0.10;0.00;;;24.30;99.90;;;;;;5067495;28;20444;-87
2022/06/24 07:42:23;;;;;;;0.10;0.00;;;24.50;99.90;;;;;;5067747;28;20980;-86
2022/06/24 07:44:48;;;;;;;0.10;0.10;;;24.50;99.90;;;;;;5081151;28;21292;-87
2022/06/24 07:47:14;;;;;;;0.10;0.00;;;24.70;99.90;;;;;;5066739;28;20190;-87
2022/06/24 07:49:39;;;;;;;0.10;0.00;;;24.70;99.90;;;;;;5068061;28;20619;-85
2022/06/24 07:52:07;;;;;;;0.10;0.00;;;24.80;99.90;;;;;;5069077;28;20218;-86
2022/06/24 07:54:33;;;;;;;0.10;0.00;;;24.80;99.90;;;;;;5069610;28;20185;-86
2022/06/24 07:56:58;;;;;;;0.10;0.00;;;25.00;99.90;;;;;;5062376;28;20485;-86
2022/06/24 07:59:25;;;;;;;0.10;0.00;;;24.90;99.90;;;;;;5065679;28;20178;-86
2022/06/24 08:01:52;;;;;;;0.10;0.00;;;24.70;99.90;;;;;;5063469;28;20178;-86
2022/06/24 08:04:19;;;;;;;0.10;0.00;;;24.70;99.90;;;;;;5070467;28;20447;-87
2022/06/24 08:06:46;;;;;;;0.10;0.00;;;24.90;99.90;;;;;;5066315;28;20448;-85
2022/06/24 08:09:13;;;;;;;0.10;0.00;;;25.00;99.90;;;;;;5070076;28;21455;-85
2022/06/24 08:11:38;;;;;;;0.10;0.00;;;25.40;99.90;;;;;;5067093;28;20995;-85
2022/06/24 08:14:04;;;;;;;0.10;0.10;;;25.00;99.90;;;;;;5071393;28;20465;-85
2022/06/24 08:16:30;;;;;;;0.10;0.00;;;24.60;99.90;;;;;;5065122;28;20649;-85
2022/06/24 08:18:56;;;;;;;0.10;0.00;;;24.60;99.90;;;;;;5065259;28;20471;-85
2022/06/24 08:21:21;;;;;;;0.10;0.00;;;24.60;99.90;;;;;;5082557;28;20189;-86
2022/06/24 08:23:49;;;;;;;0.10;0.00;;;24.70;99.90;;;;;;5070869;28;20190;-86
2022/06/24 08:26:16;;;;;;;0.10;0.00;;;24.50;99.90;;;;;;5064761;28;20238;-86
2022/06/24 08:28:44;;;;;;;0.10;0.00;;;24.90;99.90;;;;;;5056234;28;20730;-85
2022/06/24 08:31:10;;;;;;;0.10;0.00;;;25.30;99.90;;;;;;5067697;28;20474;-86
2022/06/24 08:33:36;;;;;;;0.10;0.00;;;25.60;99.90;;;;;;5066053;28;20490;-85
2022/06/24 08:36:03;;;;;;;0.10;0.00;;;25.60;99.90;;;;;;5063533;28;20451;-85
2022/06/24 08:38:28;;;;;;;0.10;0.00;;;25.90;99.90;;;;;;5065947;28;20448;-87
2022/06/24 08:40:54;;;;;;;0.10;0.00;;;25.70;99.90;;;;;;5060623;28;20494;-84
2022/06/24 08:43:21;;;;;;;0.10;0.10;;;25.60;99.90;;;;;;5067023;28;20190;-85
2022/06/24 08:45:48;;;;;;;0.10;0.00;;;25.70;99.90;;;;;;5069645;28;20448;-87
2022/06/24 08:48:14;;;;;;;0.10;0.00;;;26.20;99.90;;;;;;5054780;28;20448;-86
2022/06/24 08:50:40;;;;;;;0.10;0.00;;;26.10;99.90;;;;;;5068181;28;20440;-86
2022/06/24 08:53:08;;;;;;;0.10;0.00;;;26.40;99.90;;;;;;5065260;28;20212;-85
2022/06/24 08:55:37;;;;;;;0.10;0.00;;;26.40;99.90;;;;;;5060590;28;20229;-87
2022/06/24 08:58:10;;;;;;;0.10;0.00;;;26.50;99.90;;;;;;5067134;28;20971;-87
2022/06/24 09:00:37;;;;;;;0.10;0.10;;;26.90;99.90;;;;;;5065368;28;20444;-86
2022/06/24 09:03:03;;;;;;;0.10;0.00;;;27.10;99.90;;;;;;5063234;28;20989;-87
2022/06/24 09:05:29;;;;;;;0.10;0.00;;;27.20;99.90;;;;;;5069650;28;20488;-87
2022/06/24 09:08:12;;;;;;;0.10;0.00;;;27.40;99.90;;;;;;5067986;28;20468;-85
2022/06/24 09:10:40;;;;;;;0.10;0.00;;;27.00;99.90;;;;;;5068282;28;20209;-85
2022/06/24 09:13:06;;;;;;;0.10;0.00;;;27.20;99.90;;;;;;5069605;28;20464;-87
2022/06/24 09:15:32;;;;;;;0.10;0.00;;;27.30;99.90;;;;;;5068460;28;20527;-86
2022/06/24 09:17:59;;;;;;;0.10;0.00;;;27.40;99.90;;;;;;5060926;28;20535;-87
2022/06/24 09:20:30;;;;;;;0.10;0.00;;;27.60;99.90;;;;;;5070710;28;20495;-86
2022/06/24 09:23:05;;;;;;;0.10;0.00;;;27.90;99.90;;;;;;5064399;28;20490;-87
2022/06/24 09:25:45;;;;;;;0.10;0.00;;;28.10;99.90;;;;;;5064808;28;20490;-87
2022/06/24 09:28:18;;;;;;;0.10;0.00;;;27.90;99.90;;;;;;5067655;28;20970;-87
2022/06/24 09:30:44;;;;;;;0.10;0.00;;;28.20;99.90;;;;;;5063003;28;20521;-92
2022/06/24 09:33:15;;;;;;;0.10;0.00;;;27.80;99.90;;;;;;5069205;28;20455;-88
2022/06/24 09:35:40;;;;;;;0.10;0.00;;;27.70;99.90;;;;;;5084109;28;20189;-87
2022/06/24 09:38:06;;;;;;;0.10;0.00;;;27.70;99.90;;;;;;5066119;28;20456;-89
2022/06/24 09:40:34;;;;;;;0.10;0.00;;;28.00;99.90;;;;;;5062185;28;20635;-90
2022/06/24 09:43:05;;;;;;;0.10;0.00;;;28.40;99.90;;;;;;5068989;28;20657;-92
2022/06/24 09:45:47;;;;;;;0.10;0.00;;;28.70;99.90;;;;;;5067771;28;20440;-86
2022/06/24 09:48:28;;;;;;;0.10;0.00;;;28.60;99.90;;;;;;5068299;28;20444;-88
2022/06/24 09:50:56;;;;;;;0.10;0.00;;;28.80;99.90;;;;;;5060598;28;20496;-88
2022/06/24 09:53:25;;;;;;;0.00;0.00;;;29.00;99.90;;;;;;5065622;28;20452;-89
2022/06/24 09:55:51;;;;;;;0.10;0.00;;;29.30;99.90;;;;;;5066272;28;20535;-90
2022/06/24 09:58:17;;;;;;;0.10;0.00;;;29.40;99.90;;;;;;5068942;28;20460;-89
2022/06/24 10:00:45;;;;;;;0.10;0.07;;;29.20;99.90;;;;;;5069942;28;20444;-89
2022/06/24 10:03:12;;;;;;;0.10;0.00;;;29.20;99.90;;;;;;5068917;28;21007;-89
2022/06/24 10:06:02;;;;;;;0.10;0.00;;;29.20;99.90;;;;;;5069657;28;20439;-91
2022/06/24 10:08:32;;;;;;;0.10;0.00;;;29.60;99.90;;;;;;5065704;28;20448;-89
2022/06/24 10:10:59;;;;;;;0.10;0.00;;;29.60;99.90;;;;;;5067075;28;20831;-91
2022/06/24 10:13:32;;;;;;;0.10;0.00;;;29.40;99.90;;;;;;5070049;28;20445;-90
2022/06/24 10:16:01;;;;;;;0.10;0.00;;;29.80;99.90;;;;;;5065161;28;20446;-89
2022/06/24 10:18:39;;;;;;;0.10;0.00;;;29.70;99.90;;;;;;5067470;28;20444;-87
2022/06/24 10:21:07;;;;;;;0.10;0.00;;;30.10;99.90;;;;;;5057006;28;20466;-92
2022/06/24 10:23:45;;;;;;;0.10;0.00;;;30.20;99.90;;;;;;5060869;28;20432;-87
2022/06/24 10:26:27;;;;;;;0.10;0.00;;;29.90;99.90;;;;;;5063920;28;20439;-88
2022/06/24 10:29:04;;;;;;;0.10;0.00;;;30.10;99.90;;;;;;5066967;28;20436;-86
2022/06/24 10:31:42;;;;;;;0.10;0.00;;;29.90;99.90;;;;;;5064784;28;20477;-92
2022/06/24 10:34:13;;;;;;;0.10;0.00;;;30.60;99.90;;;;;;5080831;28;20828;-88
2022/06/24 10:36:38;;;;;;;0.10;0.00;;;30.30;99.90;;;;;;5056844;28;20481;-89
2022/06/24 10:39:11;;;;;;;0.10;0.00;;;30.90;99.90;;;;;;5080619;28;20444;-88
2022/06/24 10:41:41;;;;;;;0.10;0.00;;;31.30;99.90;;;;;;5067779;28;20182;-85
2022/06/24 10:44:24;;;;;;;0.10;0.00;;;31.80;99.90;;;;;;5068815;28;20432;-88
2022/06/24 10:47:05;;;;;;;0.10;0.00;;;32.30;99.90;;;;;;5069757;28;20432;-90
2022/06/24 10:49:49;;;;;;;0.10;0.00;;;32.70;99.90;;;;;;5064228;28;20443;-90
2022/06/24 10:52:37;;;;;;;0.10;0.00;;;32.20;99.90;;;;;;5068643;28;20475;-87
2022/06/24 10:55:18;;;;;;;0.10;0.00;;;31.80;99.90;;;;;;5065725;28;20810;-88
2022/06/24 10:57:47;;;;;;;0.10;0.00;;;31.90;99.90;;;;;;5067002;28;20542;-87
2022/06/24 11:00:18;;;;;;;0.10;0.00;;;31.70;99.90;;;;;;5082855;28;20598;-88
2022/06/24 11:02:45;;;;;;;0.10;0.00;;;31.70;99.90;;;;;;5067126;28;21163;-87
2022/06/24 11:05:22;;;;;;;0.10;0.00;;;31.90;99.90;;;;;;5060649;28;20534;-88
2022/06/24 11:07:49;;;;;;;0.10;0.00;;;31.90;99.90;;;;;;5065976;28;20431;-87
2022/06/24 11:10:16;;;;;;;0.10;0.00;;;32.00;99.90;;;;;;5064267;28;20462;-87
2022/06/24 11:12:59;;;;;;;0.10;0.00;;;32.50;99.90;;;;;;5081014;28;20508;-91
2022/06/24 11:15:49;;;;;;;0.10;0.00;;;32.90;99.90;;;;;;5068744;28;20535;-88
2022/06/24 11:18:19;;;;;;;0.10;0.00;;;33.50;99.90;;;;;;5066289;28;20459;-88
2022/06/24 11:20:47;;;;;;;0.10;0.00;;;33.70;99.90;;;;;;5063312;28;20444;-91
2022/06/24 11:23:14;;;;;;;0.10;0.00;;;33.90;99.90;;;;;;5063036;28;20801;-88
2022/06/24 11:26:04;;;;;;;0.10;0.00;;;34.60;99.90;;;;;;5067329;28;20440;-90
2022/06/24 11:28:33;;;;;;;0.10;0.00;;;33.90;99.90;;;;;;5083073;28;20973;-90
2022/06/24 11:31:21;;;;;;;0.10;0.00;;;34.00;99.90;;;;;;5068262;28;20505;-85
2022/06/24 11:34:06;;;;;;;0.10;0.00;;;34.00;99.90;;;;;;5067997;28;20436;-88
2022/06/24 11:36:33;;;;;;;0.10;0.00;;;34.00;99.90;;;;;;5060124;28;21049;-91
2022/06/24 11:39:02;;;;;;;0.10;0.00;;;33.40;99.90;;;;;;5066118;28;20447;-85
2022/06/24 11:41:31;;;;;;;0.10;0.00;;;33.80;99.90;;;;;;5081798;28;20444;-83
2022/06/24 11:43:57;;;;;;;0.10;0.00;;;34.30;98.90;;;;;;5066449;28;20476;-87
2022/06/24 11:46:23;;;;;;;0.10;0.00;;;34.90;99.90;;;;;;5071008;28;20444;-88
2022/06/24 11:48:49;;;;;;;0.10;0.00;;;34.60;99.40;;;;;;5072025;28;20192;-84
2022/06/24 11:51:19;;;;;;;0.10;0.00;;;35.00;97.70;;;;;;5064641;28;20503;-82
2022/06/24 11:53:58;;;;;;;0.10;0.00;;;35.00;96.70;;;;;;5070295;28;20277;-81
2022/06/24 11:56:29;;;;;;;0.10;0.00;;;34.40;95.90;;;;;;5071958;28;20911;-83
2022/06/24 11:58:57;;;;;;;0.10;0.00;;;34.50;97.00;;;;;;5072107;28;20473;-84
2022/06/24 12:01:24;;;;;;;0.10;0.00;;;34.20;95.90;;;;;;5068583;28;20786;-83
2022/06/24 12:03:51;;;;;;;0.10;0.00;;;34.40;96.40;;;;;;5069505;28;20468;-83
2022/06/24 12:06:18;;;;;;;0.10;0.00;;;34.40;95.00;;;;;;5077452;28;20435;-84
2022/06/24 12:08:45;;;;;;;0.10;0.00;;;34.70;95.00;;;;;;5071413;28;20483;-82
2022/06/24 12:11:19;;;;;;;0.10;0.00;;;35.00;93.50;;;;;;5070406;28;20467;-82
2022/06/24 12:13:59;;;;;;;0.10;0.00;;;34.90;94.50;;;;;;5066815;28;20509;-81
2022/06/24 12:16:26;;;;;;;0.10;0.00;;;35.00;91.70;;;;;;5070121;28;20440;-84
2022/06/24 12:18:52;;;;;;;0.10;0.00;;;35.20;92.40;;;;;;5069375;28;20483;-82
2022/06/24 12:21:25;;;;;;;0.10;0.00;;;35.60;92.80;;;;;;5066263;28;20483;-81
2022/06/24 12:23:51;;;;;;;0.10;0.00;;;35.30;90.90;;;;;;5061110;28;20185;-83
2022/06/24 12:26:22;;;;;;;0.10;0.00;;;36.30;90.80;;;;;;5064405;28;20436;-83
2022/06/24 12:29:04;;;;;;;0.10;0.00;;;35.90;90.90;;;;;;5065755;28;20186;-82
2022/06/24 12:31:31;;;;;;;0.10;0.00;;;35.50;87.60;;;;;;5069294;28;20480;-82
2022/06/24 12:33:58;;;;;;;0.10;0.00;;;35.80;87.30;;;;;;5070193;28;20568;-83
2022/06/24 12:36:33;;;;;;;0.10;0.00;;;35.80;82.30;;;;;;5063562;28;20889;-82
2022/06/24 12:39:07;;;;;;;0.10;0.00;;;35.60;79.50;;;;;;5070162;28;20446;-84
2022/06/24 12:41:47;;;;;;;0.10;0.00;;;35.60;81.80;;;;;;5068805;28;20444;-81
2022/06/24 12:44:14;;;;;;;0.10;0.00;;;35.60;78.40;;;;;;5069741;28;20458;-80
2022/06/24 12:52:48;;;;;;;0.10;0.00;;;35.40;75.90;;;;;;5067259;28;20498;-87
2022/06/24 12:55:16;;;;;;;0.10;0.00;;;33.50;76.70;;;;;;5061092;28;20452;-87
2022/06/24 12:57:42;;;;;;;0.10;0.00;;;32.90;77.50;;;;;;5087469;28;20451;-84
2022/06/24 13:00:10;;;;;;;0.10;0.00;;;33.20;77.40;;;;;;5081985;28;20440;-84
2022/06/24 13:02:41;;;;;;;0.10;0.00;;;33.80;77.70;;;;;;5068051;28;20455;-86
2022/06/24 13:05:06;;;;;;;0.10;0.00;;;33.20;77.60;;;;;;5060753;28;20440;-85
2022/06/24 13:07:32;;;;;;;0.10;0.00;;;33.40;77.60;;;;;;5065625;28;20456;-81